sensor_id;sensor_type;location;lat;lon;timestamp;pressure;altitude;pressure_sealevel;temperature;humidity
19672;BME280;9983;51.114;13.788;2023-09-19T00:03:28;98626.41;;;18.84;100.00
19672;BME280;9983;51.114;13.788;2023-09-19T00:08:29;98631.34;;;18.87;100.00
19672;BME280;9983;51.114;13.788;2023-09-19T00:13:29;98629.78;;;19.30;100.00
19672;BME280;9983;51.114;13.788;2023-09-19T00:18:30;98638.22;;;19.12;100.00
19672;BME280;9983;51.114;13.788;2023-09-19T00:23:32;98637.34;;;19.28;100.00
19672;BME280;9983;51.114;13.788;2023-09-19T00:28:33;98624.28;;;19.08;100.00
19672;BME280;9983;51.114;13.788;2023-09-19T00:33:33;98618.63;;;19.10;100.00
19672;BME280;9983;51.114;13.788;2023-09-19T00:38:34;98613.03;;;19.16;100.00
19672;BME280;9983;51.114;13.788;2023-09-19T00:43:34;98608.28;;;19.28;100.00
19672;BME280;9983;51.114;13.788;2023-09-19T00:48:40;98608.81;;;19.09;100.00
19672;BME280;9983;51.114;13.788;2023-09-19T00:53:43;98610.47;;;18.71;100.00
19672;BME280;9983;51.114;13.788;2023-09-19T00:58:47;98613.28;;;19.15;100.00
19672;BME280;9983;51.114;13.788;2023-09-19T01:03:47;98609.22;;;19.17;100.00
19672;BME280;9983;51.114;13.788;2023-09-19T01:08:47;98607.47;;;18.89;100.00
19672;BME280;9983;51.114;13.788;2023-09-19T01:13:55;98594.16;;;19.10;100.00
19672;BME280;9983;51.114;13.788;2023-09-19T01:19:26;98617.63;;;19.16;100.00
19672;BME280;9983;51.114;13.788;2023-09-19T01:30:14;98633.06;;;18.93;100.00
19672;BME280;9983;51.114;13.788;2023-09-19T01:35:17;98631.81;;;19.01;100.00
19672;BME280;9983;51.114;13.788;2023-09-19T01:40:19;98620.91;;;19.18;100.00
19672;BME280;9983;51.114;13.788;2023-09-19T01:45:37;98611.34;;;19.32;100.00
19672;BME280;9983;51.114;13.788;2023-09-19T01:50:55;98623.41;;;19.03;100.00
19672;BME280;9983;51.114;13.788;2023-09-19T01:55:59;98619.66;;;18.70;100.00
19672;BME280;9983;51.114;13.788;2023-09-19T02:01:03;98630.19;;;18.83;100.00
19672;BME280;9983;51.114;13.788;2023-09-19T02:06:05;98633.16;;;18.99;100.00
19672;BME280;9983;51.114;13.788;2023-09-19T02:11:11;98633.94;;;19.16;100.00
19672;BME280;9983;51.114;13.788;2023-09-19T02:16:16;98636.38;;;19.17;100.00
19672;BME280;9983;51.114;13.788;2023-09-19T02:21:17;98658.66;;;18.98;100.00
19672;BME280;9983;51.114;13.788;2023-09-19T02:26:18;98653.06;;;19.04;100.00
19672;BME280;9983;51.114;13.788;2023-09-19T02:31:18;98654.56;;;19.17;100.00
19672;BME280;9983;51.114;13.788;2023-09-19T02:36:19;98661.50;;;19.46;100.00
19672;BME280;9983;51.114;13.788;2023-09-19T02:41:19;98660.09;;;19.22;100.00
19672;BME280;9983;51.114;13.788;2023-09-19T02:46:19;98669.75;;;19.51;100.00
19672;BME280;9983;51.114;13.788;2023-09-19T02:51:20;98674.06;;;19.47;100.00
19672;BME280;9983;51.114;13.788;2023-09-19T02:56:21;98682.00;;;19.32;100.00
19672;BME280;9983;51.114;13.788;2023-09-19T03:01:22;98681.84;;;19.22;100.00
19672;BME280;9983;51.114;13.788;2023-09-19T03:06:22;98680.81;;;19.28;100.00
19672;BME280;9983;51.114;13.788;2023-09-19T03:11:23;98692.19;;;19.25;100.00
19672;BME280;9983;51.114;13.788;2023-09-19T03:16:24;98690.50;;;19.02;100.00
19672;BME280;9983;51.114;13.788;2023-09-19T03:21:25;98701.19;;;19.09;100.00
19672;BME280;9983;51.114;13.788;2023-09-19T03:26:25;98706.72;;;19.14;100.00
19672;BME280;9983;51.114;13.788;2023-09-19T03:31:26;98713.63;;;18.88;100.00
19672;BME280;9983;51.114;13.788;2023-09-19T03:36:28;98710.16;;;19.26;100.00
19672;BME280;9983;51.114;13.788;2023-09-19T03:41:29;98719.06;;;18.71;100.00
19672;BME280;9983;51.114;13.788;2023-09-19T03:46:29;98720.72;;;18.72;100.00
19672;BME280;9983;51.114;13.788;2023-09-19T03:51:30;98707.56;;;18.98;100.00
19672;BME280;9983;51.114;13.788;2023-09-19T03:56:31;98713.06;;;19.03;100.00
19672;BME280;9983;51.114;13.788;2023-09-19T04:01:31;98720.53;;;18.62;100.00
19672;BME280;9983;51.114;13.788;2023-09-19T04:06:34;98719.53;;;18.68;100.00
19672;BME280;9983;51.114;13.788;2023-09-19T04:11:35;98727.63;;;18.63;100.00
19672;BME280;9983;51.114;13.788;2023-09-19T04:16:35;98729.34;;;19.03;100.00
19672;BME280;9983;51.114;13.788;2023-09-19T04:21:35;98715.94;;;19.13;100.00
19672;BME280;9983;51.114;13.788;2023-09-19T04:26:35;98716.13;;;18.89;100.00
19672;BME280;9983;51.114;13.788;2023-09-19T04:31:36;98734.19;;;18.84;100.00
19672;BME280;9983;51.114;13.788;2023-09-19T04:36:38;98734.94;;;18.51;100.00
19672;BME280;9983;51.114;13.788;2023-09-19T04:41:38;98727.63;;;18.97;100.00
19672;BME280;9983;51.114;13.788;2023-09-19T04:46:40;98730.22;;;18.58;100.00
19672;BME280;9983;51.114;13.788;2023-09-19T04:51:41;98744.56;;;18.70;100.00
19672;BME280;9983;51.114;13.788;2023-09-19T04:56:42;98757.38;;;18.58;100.00
19672;BME280;9983;51.114;13.788;2023-09-19T05:01:42;98759.75;;;19.00;100.00
19672;BME280;9983;51.114;13.788;2023-09-19T05:06:43;98770.09;;;18.86;100.00
19672;BME280;9983;51.114;13.788;2023-09-19T05:11:43;98765.28;;;18.76;100.00
19672;BME280;9983;51.114;13.788;2023-09-19T05:16:43;98768.13;;;18.98;100.00
19672;BME280;9983;51.114;13.788;2023-09-19T05:21:44;98780.53;;;18.49;100.00
19672;BME280;9983;51.114;13.788;2023-09-19T05:26:44;98788.03;;;18.87;100.00
19672;BME280;9983;51.114;13.788;2023-09-19T05:31:45;98784.09;;;18.94;100.00
19672;BME280;9983;51.114;13.788;2023-09-19T05:36:45;98784.34;;;19.26;100.00
19672;BME280;9983;51.114;13.788;2023-09-19T05:41:46;98799.81;;;19.43;100.00
19672;BME280;9983;51.114;13.788;2023-09-19T05:46:47;98811.63;;;19.48;100.00
19672;BME280;9983;51.114;13.788;2023-09-19T05:51:48;98810.78;;;19.31;100.00
19672;BME280;9983;51.114;13.788;2023-09-19T05:56:48;98814.25;;;19.60;100.00
19672;BME280;9983;51.114;13.788;2023-09-19T06:01:48;98831.06;;;19.40;100.00
19672;BME280;9983;51.114;13.788;2023-09-19T06:06:49;98817.19;;;19.25;100.00
19672;BME280;9983;51.114;13.788;2023-09-19T06:11:49;98824.28;;;19.43;100.00
19672;BME280;9983;51.114;13.788;2023-09-19T06:16:50;98841.28;;;19.66;100.00
19672;BME280;9983;51.114;13.788;2023-09-19T06:21:50;98842.22;;;19.27;100.00
19672;BME280;9983;51.114;13.788;2023-09-19T06:26:51;98852.16;;;19.83;100.00
19672;BME280;9983;51.114;13.788;2023-09-19T06:31:52;98850.63;;;19.42;100.00
19672;BME280;9983;51.114;13.788;2023-09-19T06:36:52;98852.28;;;19.43;100.00
19672;BME280;9983;51.114;13.788;2023-09-19T06:41:54;98865.28;;;19.08;100.00
19672;BME280;9983;51.114;13.788;2023-09-19T06:46:55;98882.78;;;19.45;100.00
19672;BME280;9983;51.114;13.788;2023-09-19T06:51:55;98890.28;;;19.10;100.00
19672;BME280;9983;51.114;13.788;2023-09-19T06:56:57;98895.50;;;19.56;100.00
19672;BME280;9983;51.114;13.788;2023-09-19T07:01:58;98898.88;;;19.63;100.00
19672;BME280;9983;51.114;13.788;2023-09-19T07:06:59;98905.50;;;19.39;100.00
19672;BME280;9983;51.114;13.788;2023-09-19T07:11:59;98920.16;;;19.38;100.00
19672;BME280;9983;51.114;13.788;2023-09-19T07:17:00;98916.91;;;19.86;100.00
19672;BME280;9983;51.114;13.788;2023-09-19T07:22:01;98922.88;;;19.66;100.00
19672;BME280;9983;51.114;13.788;2023-09-19T07:27:02;98923.34;;;19.63;100.00
19672;BME280;9983;51.114;13.788;2023-09-19T07:32:03;98923.53;;;19.74;100.00
19672;BME280;9983;51.114;13.788;2023-09-19T07:37:03;98942.63;;;19.79;100.00
19672;BME280;9983;51.114;13.788;2023-09-19T07:42:04;98952.19;;;19.64;100.00
19672;BME280;9983;51.114;13.788;2023-09-19T07:47:04;98960.03;;;19.78;100.00
19672;BME280;9983;51.114;13.788;2023-09-19T07:52:04;98960.44;;;19.69;100.00
19672;BME280;9983;51.114;13.788;2023-09-19T07:57:05;98946.41;;;19.78;100.00
19672;BME280;9983;51.114;13.788;2023-09-19T08:02:05;98954.56;;;20.11;98.01
19672;BME280;9983;51.114;13.788;2023-09-19T08:07:05;98971.97;;;19.77;93.39
19672;BME280;9983;51.114;13.788;2023-09-19T08:12:07;98970.28;;;20.42;92.23
19672;BME280;9983;51.114;13.788;2023-09-19T08:17:10;98978.06;;;20.17;90.47
19672;BME280;9983;51.114;13.788;2023-09-19T08:22:10;98984.19;;;20.24;90.16
19672;BME280;9983;51.114;13.788;2023-09-19T08:27:11;98980.69;;;20.45;90.90
19672;BME280;9983;51.114;13.788;2023-09-19T08:32:12;98996.69;;;20.25;90.91
19672;BME280;9983;51.114;13.788;2023-09-19T08:37:12;98998.19;;;20.50;91.46
19672;BME280;9983;51.114;13.788;2023-09-19T08:42:13;99005.13;;;20.79;90.36
19672;BME280;9983;51.114;13.788;2023-09-19T08:47:15;98990.47;;;20.85;91.77
19672;BME280;9983;51.114;13.788;2023-09-19T08:52:39;99000.66;;;20.34;93.38
19672;BME280;9983;51.114;13.788;2023-09-19T08:57:42;99002.97;;;20.09;93.77
19672;BME280;9983;51.114;13.788;2023-09-19T09:02:49;99001.13;;;20.65;91.48
19672;BME280;9983;51.114;13.788;2023-09-19T09:07:51;99004.44;;;20.67;92.68
19672;BME280;9983;51.114;13.788;2023-09-19T09:12:52;98997.53;;;20.81;89.20
19672;BME280;9983;51.114;13.788;2023-09-19T09:17:56;99009.31;;;20.87;86.52
19672;BME280;9983;51.114;13.788;2023-09-19T09:22:57;99020.78;;;20.67;85.03
19672;BME280;9983;51.114;13.788;2023-09-19T09:28:01;98995.56;;;20.98;82.42
19672;BME280;9983;51.114;13.788;2023-09-19T09:33:09;99007.47;;;21.36;81.11
19672;BME280;9983;51.114;13.788;2023-09-19T09:38:11;98998.63;;;21.77;80.66
19672;BME280;9983;51.114;13.788;2023-09-19T09:43:34;99020.97;;;21.04;80.91
19672;BME280;9983;51.114;13.788;2023-09-19T09:48:36;99015.31;;;21.54;81.17
19672;BME280;9983;51.114;13.788;2023-09-19T09:53:39;99014.47;;;21.80;81.78
19672;BME280;9983;51.114;13.788;2023-09-19T09:58:57;99016.34;;;21.75;77.97
19672;BME280;9983;51.114;13.788;2023-09-19T10:03:59;99014.75;;;22.06;80.26
19672;BME280;9983;51.114;13.788;2023-09-19T10:09:05;99006.97;;;21.92;78.75
19672;BME280;9983;51.114;13.788;2023-09-19T10:14:13;99018.25;;;22.38;76.73
19672;BME280;9983;51.114;13.788;2023-09-19T10:19:37;99023.03;;;21.62;80.76
19672;BME280;9983;51.114;13.788;2023-09-19T10:24:37;99019.13;;;22.07;76.07
19672;BME280;9983;51.114;13.788;2023-09-19T10:29:39;99024.81;;;22.37;74.71
19672;BME280;9983;51.114;13.788;2023-09-19T10:34:41;99025.72;;;22.95;75.51
19672;BME280;9983;51.114;13.788;2023-09-19T10:39:46;99038.38;;;22.69;73.87
19672;BME280;9983;51.114;13.788;2023-09-19T10:44:51;99036.19;;;22.24;71.94
19672;BME280;9983;51.114;13.788;2023-09-19T10:49:53;99027.69;;;22.62;70.48
19672;BME280;9983;51.114;13.788;2023-09-19T10:54:55;99023.44;;;23.34;69.05
19672;BME280;9983;51.114;13.788;2023-09-19T11:00:06;99018.38;;;23.98;66.86
19672;BME280;9983;51.114;13.788;2023-09-19T11:05:22;99022.19;;;23.77;65.23
19672;BME280;9983;51.114;13.788;2023-09-19T11:26:41;99007.69;;;24.12;62.07
19672;BME280;9983;51.114;13.788;2023-09-19T11:31:47;99014.53;;;24.60;58.90
19672;BME280;9983;51.114;13.788;2023-09-19T11:36:49;99010.16;;;24.44;58.08
19672;BME280;9983;51.114;13.788;2023-09-19T11:41:50;99004.03;;;24.98;53.14
19672;BME280;9983;51.114;13.788;2023-09-19T11:46:56;99004.16;;;24.37;53.54
19672;BME280;9983;51.114;13.788;2023-09-19T11:52:00;99018.88;;;24.76;54.27
19672;BME280;9983;51.114;13.788;2023-09-19T11:57:09;99024.81;;;25.14;55.36
19672;BME280;9983;51.114;13.788;2023-09-19T12:02:11;99018.16;;;25.30;55.93
19672;BME280;9983;51.114;13.788;2023-09-19T12:07:19;99022.19;;;24.68;55.97
19672;BME280;9983;51.114;13.788;2023-09-19T12:12:23;99022.13;;;24.99;56.03
19672;BME280;9983;51.114;13.788;2023-09-19T12:17:37;99024.69;;;24.09;56.07
19672;BME280;9983;51.114;13.788;2023-09-19T12:22:43;99009.84;;;24.71;54.86
19672;BME280;9983;51.114;13.788;2023-09-19T12:27:45;99010.16;;;24.13;55.94
19672;BME280;9983;51.114;13.788;2023-09-19T12:32:53;99008.53;;;24.43;54.23
19672;BME280;9983;51.114;13.788;2023-09-19T12:37:54;99012.34;;;24.11;54.69
19672;BME280;9983;51.114;13.788;2023-09-19T12:42:55;99015.31;;;24.71;52.62
19672;BME280;9983;51.114;13.788;2023-09-19T12:53:27;99010.16;;;23.98;53.67
19672;BME280;9983;51.114;13.788;2023-09-19T12:58:31;99009.50;;;23.45;55.95
19672;BME280;9983;51.114;13.788;2023-09-19T13:03:32;99014.50;;;23.69;54.52
19672;BME280;9983;51.114;13.788;2023-09-19T13:08:37;99005.22;;;23.80;54.74
19672;BME280;9983;51.114;13.788;2023-09-19T13:14:14;99008.50;;;24.02;52.20
19672;BME280;9983;51.114;13.788;2023-09-19T13:19:11;99004.97;;;23.76;53.98
19672;BME280;9983;51.114;13.788;2023-09-19T13:24:23;99004.13;;;24.57;51.69
19672;BME280;9983;51.114;13.788;2023-09-19T13:29:26;98997.50;;;24.73;50.86
19672;BME280;9983;51.114;13.788;2023-09-19T13:34:26;98999.66;;;24.91;51.57
19672;BME280;9983;51.114;13.788;2023-09-19T13:39:26;99002.19;;;25.37;48.82
19672;BME280;9983;51.114;13.788;2023-09-19T13:44:26;99012.28;;;24.77;48.07
19672;BME280;9983;51.114;13.788;2023-09-19T13:49:29;98995.94;;;24.22;48.42
19672;BME280;9983;51.114;13.788;2023-09-19T13:54:31;98997.59;;;24.43;49.86
19672;BME280;9983;51.114;13.788;2023-09-19T13:59:32;99000.28;;;23.87;51.37
19672;BME280;9983;51.114;13.788;2023-09-19T14:04:32;99011.25;;;24.12;50.73
19672;BME280;9983;51.114;13.788;2023-09-19T14:09:34;98998.09;;;24.60;48.94
19672;BME280;9983;51.114;13.788;2023-09-19T14:14:34;98994.69;;;25.53;45.91
19672;BME280;9983;51.114;13.788;2023-09-19T14:19:35;98995.75;;;26.01;45.86
19672;BME280;9983;51.114;13.788;2023-09-19T14:24:36;98997.53;;;26.50;43.57
19672;BME280;9983;51.114;13.788;2023-09-19T14:29:37;99000.41;;;26.92;43.22
19672;BME280;9983;51.114;13.788;2023-09-19T14:34:37;98982.97;;;28.14;41.61
19672;BME280;9983;51.114;13.788;2023-09-19T14:39:42;98989.19;;;27.87;41.21
19672;BME280;9983;51.114;13.788;2023-09-19T14:44:45;98981.56;;;30.26;37.49
19672;BME280;9983;51.114;13.788;2023-09-19T14:49:47;98985.84;;;30.93;35.83
19672;BME280;9983;51.114;13.788;2023-09-19T14:54:47;98977.41;;;29.92;35.43
19672;BME280;9983;51.114;13.788;2023-09-19T14:59:48;98972.78;;;29.79;35.60
19672;BME280;9983;51.114;13.788;2023-09-19T15:04:48;98977.16;;;29.30;36.06
19672;BME280;9983;51.114;13.788;2023-09-19T15:09:48;98965.59;;;30.23;34.86
19672;BME280;9983;51.114;13.788;2023-09-19T15:14:49;98971.22;;;29.87;34.68
19672;BME280;9983;51.114;13.788;2023-09-19T15:19:49;98965.97;;;30.52;34.67
19672;BME280;9983;51.114;13.788;2023-09-19T15:24:50;98971.59;;;30.47;32.46
19672;BME280;9983;51.114;13.788;2023-09-19T15:29:50;98957.69;;;30.52;33.82
19672;BME280;9983;51.114;13.788;2023-09-19T15:34:50;98963.50;;;28.71;33.86
19672;BME280;9983;51.114;13.788;2023-09-19T15:39:51;98955.13;;;28.76;32.94
19672;BME280;9983;51.114;13.788;2023-09-19T15:44:51;98962.72;;;28.84;32.80
19672;BME280;9983;51.114;13.788;2023-09-19T15:49:52;98960.84;;;29.20;32.93
19672;BME280;9983;51.114;13.788;2023-09-19T15:54:52;98958.97;;;29.29;33.52
19672;BME280;9983;51.114;13.788;2023-09-19T15:59:52;98961.44;;;29.17;33.42
19672;BME280;9983;51.114;13.788;2023-09-19T16:04:54;98961.25;;;28.73;32.75
19672;BME280;9983;51.114;13.788;2023-09-19T16:09:55;98955.13;;;28.76;33.50
19672;BME280;9983;51.114;13.788;2023-09-19T16:14:56;98958.72;;;27.04;36.02
19672;BME280;9983;51.114;13.788;2023-09-19T16:19:56;98958.16;;;25.57;38.63
19672;BME280;9983;51.114;13.788;2023-09-19T16:24:56;98967.28;;;24.99;40.29
19672;BME280;9983;51.114;13.788;2023-09-19T16:29:56;98978.88;;;24.75;41.17
19672;BME280;9983;51.114;13.788;2023-09-19T16:34:57;98970.72;;;24.30;42.36
19672;BME280;9983;51.114;13.788;2023-09-19T16:39:57;98976.75;;;23.96;42.02
19672;BME280;9983;51.114;13.788;2023-09-19T16:44:57;98984.13;;;24.11;42.35
19672;BME280;9983;51.114;13.788;2023-09-19T16:49:58;98997.75;;;22.78;43.42
19672;BME280;9983;51.114;13.788;2023-09-19T16:54:58;98996.28;;;23.12;43.63
19672;BME280;9983;51.114;13.788;2023-09-19T16:59:59;99005.31;;;22.65;44.24
19672;BME280;9983;51.114;13.788;2023-09-19T17:04:59;99006.78;;;23.45;44.03
19672;BME280;9983;51.114;13.788;2023-09-19T17:09:59;98999.75;;;23.60;44.05
19672;BME280;9983;51.114;13.788;2023-09-19T17:15:00;99003.38;;;23.08;45.00
19672;BME280;9983;51.114;13.788;2023-09-19T17:20:00;99015.19;;;22.66;44.20
19672;BME280;9983;51.114;13.788;2023-09-19T17:25:00;99021.66;;;22.55;43.96
19672;BME280;9983;51.114;13.788;2023-09-19T17:30:01;99028.97;;;22.87;45.50
19672;BME280;9983;51.114;13.788;2023-09-19T17:35:03;99037.88;;;22.35;43.49
19672;BME280;9983;51.114;13.788;2023-09-19T17:40:04;99039.34;;;22.43;43.46
19672;BME280;9983;51.114;13.788;2023-09-19T17:45:05;99036.28;;;22.34;48.42
19672;BME280;9983;51.114;13.788;2023-09-19T17:50:06;99032.44;;;21.76;44.01
19672;BME280;9983;51.114;13.788;2023-09-19T17:55:10;99042.63;;;22.13;43.16
19672;BME280;9983;51.114;13.788;2023-09-19T18:00:12;99052.56;;;22.24;42.86
19672;BME280;9983;51.114;13.788;2023-09-19T18:05:13;99058.38;;;22.01;46.02
19672;BME280;9983;51.114;13.788;2023-09-19T18:10:16;99069.25;;;21.47;44.19
19672;BME280;9983;51.114;13.788;2023-09-19T18:15:16;99064.38;;;21.49;47.45
19672;BME280;9983;51.114;13.788;2023-09-19T18:20:17;99075.50;;;21.47;46.74
19672;BME280;9983;51.114;13.788;2023-09-19T18:25:19;99086.06;;;21.39;57.96
19672;BME280;9983;51.114;13.788;2023-09-19T18:30:19;99092.91;;;21.41;56.17
19672;BME280;9983;51.114;13.788;2023-09-19T18:35:21;99103.56;;;21.04;62.00
19672;BME280;9983;51.114;13.788;2023-09-19T18:40:24;99094.63;;;20.54;65.97
19672;BME280;9983;51.114;13.788;2023-09-19T18:45:24;99096.63;;;20.75;65.13
19672;BME280;9983;51.114;13.788;2023-09-19T18:50:25;99107.75;;;19.95;71.03
19672;BME280;9983;51.114;13.788;2023-09-19T18:55:26;99112.72;;;19.69;71.46
19672;BME280;9983;51.114;13.788;2023-09-19T19:00:26;99112.53;;;19.59;75.30
19672;BME280;9983;51.114;13.788;2023-09-19T19:05:30;99108.34;;;19.17;74.23
19672;BME280;9983;51.114;13.788;2023-09-19T19:10:32;99124.84;;;19.50;77.34
19672;BME280;9983;51.114;13.788;2023-09-19T19:15:33;99127.31;;;19.52;76.41
19672;BME280;9983;51.114;13.788;2023-09-19T19:20:33;99121.09;;;19.28;75.11
19672;BME280;9983;51.114;13.788;2023-09-19T19:25:46;99119.69;;;18.44;80.84
19672;BME280;9983;51.114;13.788;2023-09-19T19:30:47;99123.03;;;18.92;77.34
19672;BME280;9983;51.114;13.788;2023-09-19T19:35:48;99129.66;;;18.97;75.41
19672;BME280;9983;51.114;13.788;2023-09-19T19:40:57;99129.88;;;18.60;78.00
19672;BME280;9983;51.114;13.788;2023-09-19T19:45:58;99128.97;;;18.66;71.73
19672;BME280;9983;51.114;13.788;2023-09-19T19:50:58;99132.50;;;18.78;78.13
19672;BME280;9983;51.114;13.788;2023-09-19T19:55:59;99126.34;;;18.06;85.61
19672;BME280;9983;51.114;13.788;2023-09-19T20:01:00;99135.59;;;17.87;85.61
19672;BME280;9983;51.114;13.788;2023-09-19T20:06:01;99128.88;;;17.90;86.08
19672;BME280;9983;51.114;13.788;2023-09-19T20:11:05;99132.78;;;17.09;89.72
19672;BME280;9983;51.114;13.788;2023-09-19T20:16:06;99132.19;;;17.62;86.99
19672;BME280;9983;51.114;13.788;2023-09-19T20:21:09;99133.66;;;17.76;88.09
19672;BME280;9983;51.114;13.788;2023-09-19T20:26:15;99130.50;;;17.61;90.72
19672;BME280;9983;51.114;13.788;2023-09-19T20:31:15;99133.34;;;16.93;93.12
19672;BME280;9983;51.114;13.788;2023-09-19T20:36:16;99138.78;;;16.93;93.60
19672;BME280;9983;51.114;13.788;2023-09-19T20:41:16;99135.44;;;16.73;93.83
19672;BME280;9983;51.114;13.788;2023-09-19T20:46:16;99134.75;;;17.20;89.97
19672;BME280;9983;51.114;13.788;2023-09-19T20:51:17;99130.84;;;16.48;93.64
19672;BME280;9983;51.114;13.788;2023-09-19T20:56:25;99121.00;;;16.29;98.57
19672;BME280;9983;51.114;13.788;2023-09-19T21:01:25;99118.13;;;16.24;100.00
19672;BME280;9983;51.114;13.788;2023-09-19T21:06:26;99122.31;;;16.20;100.00
19672;BME280;9983;51.114;13.788;2023-09-19T21:11:26;99121.78;;;16.86;99.20
19672;BME280;9983;51.114;13.788;2023-09-19T21:16:27;99116.19;;;16.62;100.00
19672;BME280;9983;51.114;13.788;2023-09-19T21:21:27;99117.06;;;16.50;100.00
19672;BME280;9983;51.114;13.788;2023-09-19T21:26:28;99122.88;;;16.53;100.00
19672;BME280;9983;51.114;13.788;2023-09-19T21:31:28;99107.41;;;16.60;99.70
19672;BME280;9983;51.114;13.788;2023-09-19T21:36:28;99125.84;;;16.95;98.35
19672;BME280;9983;51.114;13.788;2023-09-19T21:41:33;99122.53;;;16.93;99.33
19672;BME280;9983;51.114;13.788;2023-09-19T21:46:33;99125.69;;;17.08;96.96
19672;BME280;9983;51.114;13.788;2023-09-19T21:51:33;99122.09;;;16.96;96.98
19672;BME280;9983;51.114;13.788;2023-09-19T21:56:34;99107.00;;;16.63;99.05
19672;BME280;9983;51.114;13.788;2023-09-19T22:01:34;99102.78;;;16.67;100.00
19672;BME280;9983;51.114;13.788;2023-09-19T22:06:35;99108.38;;;16.91;97.69
19672;BME280;9983;51.114;13.788;2023-09-19T22:11:35;99098.94;;;16.82;98.85
19672;BME280;9983;51.114;13.788;2023-09-19T22:16:36;99096.31;;;16.44;100.00
19672;BME280;9983;51.114;13.788;2023-09-19T22:21:38;99093.47;;;16.63;97.94
19672;BME280;9983;51.114;13.788;2023-09-19T22:26:38;99093.19;;;16.22;100.00
19672;BME280;9983;51.114;13.788;2023-09-19T22:31:42;99095.06;;;16.46;100.00
19672;BME280;9983;51.114;13.788;2023-09-19T22:36:42;99094.66;;;15.93;100.00
19672;BME280;9983;51.114;13.788;2023-09-19T22:41:43;99091.53;;;16.21;100.00
19672;BME280;9983;51.114;13.788;2023-09-19T22:46:45;99092.44;;;16.08;100.00
19672;BME280;9983;51.114;13.788;2023-09-19T22:51:46;99088.16;;;16.25;100.00
19672;BME280;9983;51.114;13.788;2023-09-19T22:56:54;99094.16;;;16.03;100.00
19672;BME280;9983;51.114;13.788;2023-09-19T23:01:55;99090.13;;;15.87;100.00
19672;BME280;9983;51.114;13.788;2023-09-19T23:06:57;99095.81;;;16.04;100.00
19672;BME280;9983;51.114;13.788;2023-09-19T23:12:05;99101.31;;;15.90;100.00
19672;BME280;9983;51.114;13.788;2023-09-19T23:17:07;99099.22;;;15.92;100.00
19672;BME280;9983;51.114;13.788;2023-09-19T23:22:14;99103.41;;;15.88;100.00
19672;BME280;9983;51.114;13.788;2023-09-19T23:27:17;99094.34;;;15.76;100.00
19672;BME280;9983;51.114;13.788;2023-09-19T23:32:33;99105.88;;;15.52;100.00
19672;BME280;9983;51.114;13.788;2023-09-19T23:37:33;99101.13;;;15.54;100.00
19672;BME280;9983;51.114;13.788;2023-09-19T23:42:35;99103.13;;;15.65;100.00
19672;BME280;9983;51.114;13.788;2023-09-19T23:47:35;99112.31;;;15.64;100.00
19672;BME280;9983;51.114;13.788;2023-09-19T23:52:36;99107.78;;;15.45;100.00
19672;BME280;9983;51.114;13.788;2023-09-19T23:57:36;99109.06;;;15.36;100.00
